createdAt,value
2023-03-14T00:00:13.014Z,23.68
2023-03-14T00:01:13.061Z,23.71
2023-03-14T00:02:13.106Z,23.70
2023-03-14T00:03:13.146Z,23.69
2023-03-14T00:04:13.141Z,23.70
2023-03-14T00:05:13.160Z,23.71
2023-03-14T00:06:13.229Z,23.70
2023-03-14T00:07:13.239Z,23.71
2023-03-14T00:08:13.244Z,23.72
2023-03-14T00:09:13.339Z,23.72
2023-03-14T00:10:13.344Z,23.72
2023-03-14T00:11:13.375Z,23.75
2023-03-14T00:12:13.386Z,23.75
2023-03-14T00:13:13.429Z,23.74
2023-03-14T00:14:13.467Z,23.73
2023-03-14T00:15:13.525Z,23.76
2023-03-14T00:16:13.622Z,23.77
2023-03-14T00:17:13.572Z,23.77
2023-03-14T00:18:13.617Z,23.76
2023-03-14T00:19:13.647Z,23.77
2023-03-14T00:20:13.671Z,23.77
2023-03-14T00:21:13.711Z,23.76
2023-03-14T00:22:13.764Z,23.78
2023-03-14T00:23:13.753Z,23.76
2023-03-14T00:24:13.799Z,23.75
2023-03-14T00:25:13.821Z,23.73
2023-03-14T00:26:13.855Z,23.73
2023-03-14T00:27:13.892Z,23.76
2023-03-14T00:28:13.925Z,23.77
2023-03-14T00:29:13.922Z,23.80
2023-03-14T00:30:13.977Z,23.79
2023-03-14T00:31:14.110Z,23.77
2023-03-14T00:32:14.006Z,23.79
2023-03-14T00:33:14.021Z,23.81
2023-03-14T00:34:14.062Z,23.83
2023-03-14T00:35:14.116Z,23.83
2023-03-14T00:36:14.150Z,23.83
2023-03-14T00:37:14.197Z,23.84
2023-03-14T00:38:14.755Z,23.84
2023-03-14T00:39:14.235Z,23.83
2023-03-14T00:40:14.259Z,23.83
2023-03-14T00:41:14.278Z,23.83
2023-03-14T00:42:14.312Z,23.82
2023-03-14T00:43:14.328Z,23.82
2023-03-14T00:44:14.333Z,23.81
2023-03-14T00:45:14.350Z,23.84
2023-03-14T00:46:14.479Z,23.84
2023-03-14T00:47:14.422Z,23.86
2023-03-14T00:48:14.470Z,23.84
2023-03-14T00:49:14.451Z,23.84
2023-03-14T00:50:14.479Z,23.84
2023-03-14T00:51:14.516Z,23.85
2023-03-14T00:52:14.541Z,23.88
2023-03-14T00:53:14.562Z,23.86
2023-03-14T00:54:14.578Z,23.89
2023-03-14T00:55:14.605Z,23.88
2023-03-14T00:56:14.652Z,23.89
2023-03-14T00:57:14.670Z,23.88
2023-03-14T00:58:14.705Z,23.90
2023-03-14T04:35:21.679Z,33.90
2023-03-14T04:36:21.689Z,34.07
2023-03-14T04:37:21.770Z,34.03
2023-03-14T04:38:21.802Z,34.05
2023-03-14T04:39:21.805Z,34.10
2023-03-14T04:40:21.983Z,34.15
2023-03-14T04:41:21.919Z,34.18
2023-03-14T04:42:21.958Z,34.30
2023-03-14T04:43:21.985Z,34.40
2023-03-14T04:44:22.029Z,34.42
2023-03-14T04:45:22.078Z,34.44
2023-03-14T04:46:22.144Z,34.53
2023-03-14T04:47:22.179Z,34.50
2023-03-14T04:48:22.216Z,34.40
2023-03-14T04:49:22.232Z,34.40
2023-03-14T04:50:22.346Z,34.31
2023-03-14T04:51:22.331Z,34.25
2023-03-14T04:52:22.360Z,34.15
2023-03-14T04:53:22.346Z,34.09
2023-03-14T04:54:22.397Z,34.05
2023-03-14T04:55:24.378Z,33.92
2023-03-14T04:56:22.387Z,33.90
2023-03-14T04:57:22.418Z,33.82
2023-03-14T04:58:22.424Z,33.79
2023-03-14T04:59:22.390Z,33.69
2023-03-14T05:00:22.396Z,33.50
2023-03-14T05:01:22.458Z,33.41
2023-03-14T05:02:22.428Z,33.24
2023-03-14T05:03:22.506Z,33.16
2023-03-14T05:04:22.540Z,32.98
2023-03-14T05:05:22.639Z,32.86
2023-03-14T05:06:22.620Z,32.73
2023-03-14T05:07:22.725Z,32.51
2023-03-14T05:08:22.742Z,32.43
2023-03-14T05:09:22.816Z,32.38
2023-03-14T05:10:22.860Z,32.30
2023-03-14T05:11:22.913Z,32.18
2023-03-14T05:12:22.930Z,32.03
2023-03-14T05:13:22.989Z,31.95
2023-03-14T05:14:22.997Z,31.80
2023-03-14T05:15:23.020Z,31.72
2023-03-14T05:16:23.086Z,31.75
2023-03-14T05:17:23.085Z,31.70
2023-03-14T05:18:23.128Z,31.58
2023-03-14T05:19:23.131Z,31.48
2023-03-14T05:20:23.193Z,31.39
2023-03-14T05:21:23.225Z,31.37
2023-03-14T05:22:23.235Z,31.45
2023-03-14T05:23:23.291Z,31.54
2023-03-14T05:24:23.293Z,31.43
2023-03-14T05:25:23.313Z,31.41
2023-03-14T05:26:23.330Z,31.54
2023-03-14T05:27:23.365Z,31.55
2023-03-14T05:28:23.404Z,31.56
2023-03-14T05:29:23.467Z,31.45
2023-03-14T05:30:23.482Z,31.38
2023-03-14T05:31:23.548Z,31.26
2023-03-14T05:32:23.575Z,31.10
2023-03-14T05:33:23.580Z,31.01
2023-03-14T05:34:23.625Z,30.99
2023-03-14T05:35:23.665Z,30.94
2023-03-14T05:36:23.675Z,30.92
2023-03-14T05:37:23.695Z,30.90
2023-03-14T05:38:23.698Z,30.89
2023-03-14T05:39:23.715Z,30.76
2023-03-14T06:00:24.622Z,31.81
2023-03-14T06:01:31.612Z,31.77
2023-03-14T06:02:24.715Z,31.80
2023-03-14T06:03:24.729Z,31.78
2023-03-14T06:04:24.615Z,31.79
2023-03-14T06:05:24.652Z,31.73
2023-03-14T06:07:24.623Z,31.64
2023-03-14T06:09:24.574Z,31.62
2023-03-14T06:10:24.546Z,31.65
2023-03-14T06:11:24.562Z,31.66
2023-03-14T06:45:33.976Z,35.75
2023-03-14T08:40:29.265Z,33.30
2023-03-14T08:41:29.260Z,33.61
2023-03-14T08:42:29.281Z,34.34
2023-03-14T08:43:29.385Z,33.03
2023-03-14T08:44:29.584Z,33.33
2023-03-14T08:45:29.460Z,33.40
2023-03-14T08:46:29.489Z,32.71
2023-03-14T08:47:29.491Z,33.69
2023-03-14T08:48:29.525Z,32.97
2023-03-14T08:50:29.652Z,33.09
2023-03-14T08:51:29.687Z,33.10
2023-03-14T08:52:29.748Z,33.94
2023-03-14T08:53:29.807Z,33.58
2023-03-14T08:54:29.806Z,33.79
2023-03-14T08:55:29.874Z,34.20
2023-03-14T08:56:29.906Z,33.98
2023-03-14T08:57:29.923Z,33.89
2023-03-14T08:58:29.925Z,33.86
2023-03-14T08:59:29.988Z,34.12
2023-03-14T09:00:30.006Z,34.50
2023-03-14T09:01:30.081Z,34.09
2023-03-14T09:02:29.994Z,33.79
2023-03-14T09:03:30.035Z,34.02
2023-03-14T09:04:30.573Z,34.21
2023-03-14T09:05:30.039Z,34.12
2023-03-14T09:18:30.104Z,35.13
2023-03-14T09:19:30.138Z,35.13
2023-03-14T09:20:30.212Z,35.00
2023-03-14T09:21:30.255Z,34.84
2023-03-14T09:22:30.321Z,35.04
2023-03-14T09:23:30.411Z,34.97
2023-03-14T09:24:30.490Z,35.87
2023-03-14T09:25:30.525Z,35.57
2023-03-14T09:26:30.566Z,36.21
2023-03-14T09:27:30.652Z,35.98
2023-03-14T09:28:30.642Z,36.24
2023-03-14T09:29:30.727Z,36.52
2023-03-14T09:30:31.014Z,36.85
2023-03-14T09:31:30.912Z,35.77
2023-03-14T09:32:30.885Z,35.37
2023-03-14T09:33:30.927Z,35.51
2023-03-14T09:34:30.946Z,36.21
2023-03-14T09:35:31.524Z,35.67
2023-03-14T09:36:31.093Z,35.52
2023-03-14T09:37:31.134Z,34.77
2023-03-14T09:38:31.182Z,35.92
2023-03-14T09:39:31.199Z,35.22
2023-03-14T09:40:31.278Z,36.45
2023-03-14T09:41:31.321Z,37.22
2023-03-14T09:42:31.387Z,38.11
2023-03-14T09:43:31.415Z,34.67
2023-03-14T09:45:31.536Z,33.59
2023-03-14T09:46:31.592Z,33.21
2023-03-14T09:47:31.625Z,33.11
2023-03-14T09:48:31.708Z,34.03
2023-03-14T09:49:31.734Z,33.49
2023-03-14T09:50:32.034Z,34.02
2023-03-14T09:51:31.800Z,34.52
2023-03-14T09:52:31.835Z,35.28
2023-03-14T09:53:31.804Z,35.05
2023-03-14T09:54:31.839Z,35.27
2023-03-14T09:55:32.019Z,35.90
2023-03-14T09:56:31.831Z,35.36
2023-03-14T09:57:31.808Z,34.74
2023-03-14T09:58:31.822Z,34.89
2023-03-14T09:59:31.811Z,34.99
2023-03-14T10:00:31.977Z,34.66
2023-03-14T10:01:32.751Z,34.51
2023-03-14T10:02:31.920Z,34.08
2023-03-14T10:03:32.032Z,34.86
2023-03-14T10:04:32.089Z,34.92
2023-03-14T10:05:32.114Z,34.72
2023-03-14T10:06:32.184Z,35.30
2023-03-14T10:07:32.280Z,34.32
2023-03-14T10:08:32.323Z,34.02
2023-03-14T10:09:32.328Z,34.37
2023-03-14T10:10:32.511Z,33.65
2023-03-14T10:11:32.295Z,34.11
2023-03-14T10:12:32.368Z,33.54
2023-03-14T10:13:32.294Z,33.12
2023-03-14T10:14:32.332Z,33.32
2023-03-14T10:15:32.491Z,32.18
2023-03-14T10:16:32.436Z,31.73
2023-03-14T10:17:32.387Z,31.93
2023-03-14T10:18:32.433Z,31.72
2023-03-14T10:19:32.433Z,31.99
2023-03-14T10:20:32.512Z,31.37
2023-03-14T10:21:32.516Z,31.47
2023-03-14T10:22:32.542Z,31.58
2023-03-14T10:23:32.680Z,31.61
2023-03-14T10:24:32.605Z,32.48
2023-03-14T10:25:33.009Z,32.64
2023-03-14T10:26:32.685Z,31.76
2023-03-14T10:27:32.717Z,31.76
2023-03-14T10:28:32.753Z,32.09
2023-03-14T10:29:32.773Z,31.80
2023-03-14T10:30:33.302Z,31.80
2023-03-14T10:31:32.814Z,31.65
2023-03-14T10:32:32.858Z,31.06
2023-03-14T10:33:32.853Z,31.52
2023-03-14T10:34:32.816Z,31.85
2023-03-14T10:35:32.872Z,32.08
2023-03-14T10:36:32.854Z,30.76
2023-03-14T10:37:32.863Z,31.14
2023-03-14T10:38:32.863Z,30.33
2023-03-14T10:39:32.887Z,30.30
2023-03-14T10:40:32.882Z,31.01
2023-03-14T10:41:33.010Z,31.27
2023-03-14T10:42:33.093Z,31.65
2023-03-14T10:43:33.003Z,31.55
2023-03-14T10:44:33.006Z,31.23
2023-03-14T10:45:33.056Z,31.73
2023-03-14T10:46:33.529Z,32.36
2023-03-14T10:47:33.174Z,32.44
2023-03-14T10:48:33.198Z,32.34
2023-03-14T10:49:33.242Z,32.08
2023-03-14T10:50:33.314Z,32.48
2023-03-14T10:51:33.365Z,32.54
2023-03-14T10:52:57.249Z,32.55
2023-03-14T10:53:34.427Z,32.60
2023-03-14T10:54:33.434Z,33.57
2023-03-14T10:55:33.386Z,33.39
2023-03-14T10:56:33.402Z,32.91
2023-03-14T10:57:33.374Z,33.12
2023-03-14T10:58:33.456Z,33.53
2023-03-14T10:59:33.410Z,33.58
2023-03-14T11:00:33.368Z,33.74
2023-03-14T11:01:33.601Z,33.46
2023-03-14T11:02:33.378Z,34.20
2023-03-14T11:03:33.402Z,33.64
2023-03-14T11:04:33.536Z,33.68
2023-03-14T11:05:33.358Z,33.20
2023-03-14T11:06:33.560Z,33.45
2023-03-14T11:07:33.302Z,32.93
2023-03-14T11:08:33.329Z,31.96
2023-03-14T11:09:33.307Z,31.26
2023-03-14T11:10:33.340Z,30.94
2023-03-14T11:11:33.305Z,30.97
2023-03-14T11:12:33.327Z,31.12
2023-03-14T11:13:33.316Z,30.93
2023-03-14T11:14:33.295Z,31.02
2023-03-14T11:15:33.328Z,30.97
2023-03-14T11:16:33.534Z,30.90
2023-03-14T11:17:33.384Z,31.22
2023-03-14T11:18:33.415Z,31.18
2023-03-14T11:19:34.477Z,31.08
2023-03-14T11:20:33.513Z,31.04
2023-03-14T11:21:33.580Z,30.85
2023-03-14T11:22:33.627Z,31.06
2023-03-14T11:23:33.860Z,31.02
2023-03-14T11:24:33.695Z,31.53
2023-03-14T11:25:33.766Z,31.01
2023-03-14T11:26:34.080Z,31.18
2023-03-14T11:27:33.872Z,30.79
2023-03-14T11:28:33.874Z,30.93
2023-03-14T11:29:33.925Z,30.70
2023-03-14T11:30:33.969Z,30.80
2023-03-14T11:31:34.141Z,30.68
2023-03-14T11:32:34.055Z,30.71
2023-03-14T11:33:34.062Z,31.50
2023-03-14T11:34:34.122Z,31.00
2023-03-14T11:35:34.160Z,31.18
2023-03-14T11:36:34.565Z,31.58
2023-03-14T11:37:34.226Z,31.83
2023-03-14T11:38:34.271Z,32.29
2023-03-14T11:39:34.372Z,32.64
2023-03-14T11:40:34.382Z,32.88
2023-03-14T11:41:34.561Z,34.14
2023-03-14T11:42:34.491Z,33.09
2023-03-14T11:43:34.550Z,31.99
2023-03-14T11:44:34.576Z,31.25
2023-03-14T11:45:34.658Z,31.86
2023-03-14T11:46:35.106Z,31.45
2023-03-14T11:47:34.771Z,32.63
2023-03-14T11:48:34.847Z,32.53
2023-03-14T11:49:34.895Z,32.51
2023-03-14T11:50:34.955Z,33.44
2023-03-14T11:51:35.280Z,32.86
2023-03-14T11:52:35.019Z,32.93
2023-03-14T11:53:35.056Z,33.99
2023-03-14T11:54:35.141Z,33.94
2023-03-14T11:55:35.085Z,34.17
2023-03-14T11:56:35.565Z,33.58
2023-03-14T11:57:35.138Z,34.10
2023-03-14T11:58:35.135Z,33.92
2023-03-14T11:59:35.099Z,33.82
2023-03-14T12:00:35.130Z,34.08
2023-03-14T12:01:35.218Z,34.68
2023-03-14T12:02:35.184Z,34.75
2023-03-14T12:03:35.284Z,34.67
2023-03-14T12:04:35.296Z,34.40
2023-03-14T12:05:35.361Z,34.62
2023-03-14T12:06:35.849Z,34.38
2023-03-14T12:07:35.498Z,34.22
2023-03-14T12:08:35.581Z,34.48
2023-03-14T12:09:35.610Z,34.58
2023-03-14T12:10:35.675Z,35.16
2023-03-14T12:11:36.061Z,35.10
2023-03-14T12:12:35.805Z,34.71
2023-03-14T12:13:35.883Z,35.70
2023-03-14T12:14:35.920Z,34.96
2023-03-14T12:15:35.953Z,34.82
2023-03-14T12:16:36.157Z,35.02
2023-03-14T12:17:36.088Z,35.30
2023-03-14T12:18:36.107Z,35.39
2023-03-14T12:19:36.166Z,35.45
2023-03-14T12:20:36.297Z,35.74
2023-03-14T12:21:36.537Z,35.54
2023-03-14T12:22:36.308Z,36.10
2023-03-14T12:23:36.353Z,35.51
2023-03-14T12:24:36.399Z,35.74
2023-03-14T12:25:36.438Z,36.49
2023-03-14T12:26:36.581Z,36.41
2023-03-14T12:27:36.518Z,36.45
2023-03-14T12:28:36.594Z,37.13
2023-03-14T12:29:36.560Z,36.52
2023-03-14T12:30:36.613Z,36.07
2023-03-14T12:31:37.180Z,35.89
2023-03-14T12:32:36.743Z,35.78
2023-03-14T12:33:36.744Z,35.44
2023-03-14T12:34:36.885Z,35.27
2023-03-14T12:35:36.939Z,35.07
2023-03-14T12:36:37.049Z,34.90
2023-03-14T12:37:36.940Z,34.73
2023-03-14T12:38:36.968Z,34.72
2023-03-14T12:39:37.023Z,34.62
2023-03-14T12:40:37.100Z,34.63
2023-03-14T12:41:37.167Z,34.47
2023-03-14T12:42:44.621Z,34.38
2023-03-14T12:43:38.200Z,34.37
2023-03-14T12:44:37.210Z,34.47
2023-03-14T12:45:37.241Z,34.34
2023-03-14T12:46:37.194Z,34.34
2023-03-14T12:47:37.176Z,34.26
2023-03-14T12:48:37.166Z,34.24
2023-03-14T12:49:37.197Z,34.16
2023-03-14T12:50:37.141Z,34.09
2023-03-14T12:51:37.158Z,34.12
2023-03-14T12:52:37.113Z,34.10
2023-03-14T12:53:37.142Z,33.99
2023-03-14T12:54:37.139Z,33.91
2023-03-14T12:55:37.223Z,33.90
2023-03-14T12:56:37.276Z,33.93
2023-03-14T12:57:37.222Z,33.94
2023-03-14T12:58:37.260Z,33.93
2023-03-14T12:59:37.250Z,33.94
2023-03-14T13:00:37.323Z,33.89
2023-03-14T13:01:37.296Z,33.80
2023-03-14T13:02:37.318Z,33.77
2023-03-14T13:03:37.350Z,33.73
2023-03-14T13:04:40.043Z,33.72
2023-03-14T13:05:37.371Z,33.69
2023-03-14T13:06:37.317Z,33.66
2023-03-14T13:07:37.301Z,33.64
2023-03-14T13:08:39.490Z,33.69
2023-03-14T13:09:37.272Z,33.61
2023-03-14T13:10:39.079Z,33.55
2023-03-14T13:11:37.236Z,33.54
2023-03-14T13:12:37.281Z,33.54
2023-03-14T13:13:37.246Z,33.43
2023-03-14T13:14:37.246Z,33.48
2023-03-14T13:15:37.309Z,33.45
2023-03-14T13:16:37.375Z,33.42
2023-03-14T13:17:38.051Z,33.39
2023-03-14T13:18:37.301Z,33.37
2023-03-14T13:19:37.282Z,33.38
2023-03-14T13:20:37.378Z,33.36
2023-03-14T13:21:37.301Z,33.32
2023-03-14T13:22:37.306Z,33.30
2023-03-14T13:23:37.283Z,33.29
2023-03-14T13:24:37.275Z,33.20
2023-03-14T13:25:37.292Z,33.15
2023-03-14T13:26:37.474Z,33.17
2023-03-14T13:27:37.313Z,33.16
2023-03-14T13:28:37.252Z,33.15
2023-03-14T13:29:37.290Z,33.12
2023-03-14T13:30:37.249Z,33.11
2023-03-14T13:31:37.294Z,33.08
2023-03-14T13:32:37.304Z,33.04
2023-03-14T13:33:37.274Z,33.07
2023-03-14T13:34:37.401Z,33.04
2023-03-14T13:35:37.319Z,33.04
2023-03-14T13:36:37.285Z,33.01
2023-03-14T13:37:37.324Z,32.98
2023-03-14T13:38:37.313Z,32.96
2023-03-14T13:39:37.355Z,32.85
2023-03-14T13:40:37.305Z,32.87
2023-03-14T13:41:37.291Z,32.83
2023-03-14T13:42:37.267Z,32.84
2023-03-14T13:43:37.309Z,32.82
2023-03-14T13:44:37.272Z,32.77
2023-03-14T13:45:37.370Z,32.74
2023-03-14T13:46:37.627Z,32.73
2023-03-14T13:47:37.306Z,32.69
2023-03-14T13:48:37.300Z,32.66
2023-03-14T13:49:37.327Z,32.68
2023-03-14T13:50:37.300Z,32.65
2023-03-14T13:51:37.320Z,32.65
2023-03-14T13:52:37.330Z,32.67
2023-03-14T13:53:37.323Z,32.66
2023-03-14T13:54:38.107Z,32.73
2023-03-14T13:55:37.357Z,32.72
2023-03-14T13:56:37.402Z,32.64
2023-03-14T13:57:37.358Z,32.78
2023-03-14T13:58:37.385Z,32.71
2023-03-14T13:59:37.410Z,32.76
2023-03-14T14:00:37.375Z,32.77
2023-03-14T14:01:37.478Z,32.61
2023-03-14T14:02:37.433Z,32.74
2023-03-14T14:03:37.449Z,32.78
2023-03-14T14:04:37.460Z,32.82
2023-03-14T14:05:37.509Z,32.95
2023-03-14T14:06:37.508Z,32.94
2023-03-14T14:07:37.505Z,32.93
2023-03-14T14:08:38.438Z,32.94
2023-03-14T14:09:37.569Z,32.87
2023-03-14T14:10:37.547Z,32.86
2023-03-14T14:11:47.115Z,32.84
2023-03-14T14:12:38.576Z,32.77
2023-03-14T14:13:37.551Z,32.74
2023-03-14T14:14:37.761Z,32.73
2023-03-14T14:15:38.213Z,32.72
2023-03-14T14:16:37.627Z,32.66
2023-03-14T14:17:37.551Z,32.63
2023-03-14T14:18:37.520Z,32.72
2023-03-14T14:20:37.527Z,32.68
2023-03-14T14:21:37.717Z,32.65
2023-03-14T14:22:37.538Z,32.62
2023-03-14T14:23:37.474Z,32.62
2023-03-14T14:24:37.478Z,32.55
2023-03-14T14:26:37.505Z,32.53
2023-03-14T14:27:37.505Z,32.48
2023-03-14T14:28:37.451Z,32.51
2023-03-14T14:29:37.450Z,32.51
2023-03-14T14:30:37.464Z,32.48
2023-03-14T15:04:37.548Z,31.96
2023-03-14T15:05:37.559Z,31.92
2023-03-14T15:06:37.592Z,31.94
2023-03-14T15:07:37.599Z,31.96
2023-03-14T15:08:37.645Z,31.89
2023-03-14T15:09:37.624Z,31.90
2023-03-14T15:10:37.704Z,31.89
2023-03-14T15:11:37.642Z,31.84
2023-03-14T15:12:37.680Z,31.85
2023-03-14T15:13:37.684Z,31.82
2023-03-14T15:14:37.711Z,31.83
2023-03-14T15:15:37.714Z,31.73
2023-03-14T15:16:37.779Z,31.74
2023-03-14T15:17:37.727Z,31.70
2023-03-14T15:18:37.710Z,31.70
2023-03-14T15:19:37.780Z,31.69
2023-03-14T15:20:37.731Z,31.72
2023-03-14T15:21:37.745Z,31.68
2023-03-14T15:22:37.810Z,31.72
2023-03-14T15:23:37.751Z,31.70
2023-03-14T15:24:37.762Z,31.68
2023-03-14T15:25:54.128Z,31.68
2023-03-14T15:26:38.753Z,31.63
2023-03-14T15:27:37.787Z,31.66
2023-03-14T15:28:37.749Z,31.66
2023-03-14T15:29:37.757Z,31.67
2023-03-14T15:30:37.731Z,31.64
2023-03-14T15:31:37.774Z,31.65
2023-03-14T15:32:37.776Z,31.63
2023-03-14T15:35:37.710Z,31.63
2023-03-14T15:36:37.709Z,31.63
2023-03-14T15:37:37.716Z,31.62
2023-03-14T15:38:37.709Z,31.61
2023-03-14T15:39:37.689Z,31.62
2023-03-14T15:40:37.700Z,31.58
2023-03-14T15:41:37.668Z,31.60
2023-03-14T15:42:37.638Z,31.65
2023-03-14T15:43:37.649Z,31.63
2023-03-14T15:44:37.646Z,31.67
2023-03-14T15:45:37.772Z,31.64
2023-03-14T15:46:37.642Z,31.67
2023-03-14T15:47:37.689Z,31.66
2023-03-14T15:48:37.633Z,31.66
2023-03-14T15:49:37.634Z,31.68
2023-03-14T15:50:37.613Z,31.69
2023-03-14T15:51:37.610Z,31.69
2023-03-14T15:55:37.576Z,31.68
2023-03-14T15:57:37.612Z,31.70
2023-03-14T15:58:37.553Z,31.71
2023-03-14T15:59:37.556Z,31.69
2023-03-14T16:00:37.522Z,31.72
2023-03-14T16:01:37.585Z,31.70
2023-03-14T16:02:37.616Z,31.73
2023-03-14T16:03:37.510Z,31.75
2023-03-14T16:04:37.577Z,31.77
2023-03-14T16:05:37.507Z,31.79
2023-03-14T16:06:37.516Z,31.77
2023-03-14T16:07:37.517Z,31.81
2023-03-14T16:08:37.583Z,31.84
2023-03-14T16:09:37.548Z,31.82
2023-03-14T16:10:37.565Z,31.84
2023-03-14T16:11:37.566Z,31.87
2023-03-14T16:12:37.612Z,31.86
2023-03-14T16:13:37.617Z,31.90
2023-03-14T16:14:37.579Z,31.87
2023-03-14T16:15:37.632Z,31.89
2023-03-14T16:16:37.677Z,31.87
2023-03-14T16:17:37.641Z,31.88
2023-03-14T16:18:37.674Z,31.88
2023-03-14T16:19:37.647Z,31.84
2023-03-14T16:20:47.575Z,31.87
2023-03-14T16:21:38.691Z,31.88
2023-03-14T16:22:37.673Z,31.87
2023-03-14T16:23:37.662Z,31.88
2023-03-14T16:24:37.640Z,31.87
2023-03-14T16:25:37.618Z,31.86
2023-03-14T16:26:37.614Z,31.87
2023-03-14T16:27:37.610Z,31.88
2023-03-14T16:28:37.603Z,31.86
2023-03-14T16:29:37.618Z,31.87
2023-03-14T16:30:37.633Z,31.87
2023-03-14T16:31:37.602Z,31.87
2023-03-14T16:32:37.612Z,31.88
2023-03-14T16:33:37.577Z,31.87
2023-03-14T16:34:37.594Z,31.87
2023-03-14T16:35:37.572Z,31.84
2023-03-14T16:36:37.577Z,31.87
2023-03-14T16:37:37.564Z,31.87
2023-03-14T16:38:37.552Z,31.89
2023-03-14T16:39:55.944Z,31.85
2023-03-14T16:40:38.566Z,31.86
2023-03-14T16:41:37.525Z,31.86
2023-03-14T16:42:41.001Z,31.83
2023-03-14T16:43:38.587Z,31.82
2023-03-14T16:44:37.513Z,31.80
2023-03-14T16:45:37.632Z,31.78
2023-03-14T16:46:37.581Z,31.79
2023-03-14T16:47:37.458Z,31.79
2023-03-14T16:48:37.489Z,31.80
2023-03-14T16:49:37.479Z,31.80
2023-03-14T16:50:37.478Z,31.81
2023-03-14T16:51:37.461Z,31.78
2023-03-14T16:52:37.468Z,31.76
2023-03-14T16:53:37.421Z,31.76
2023-03-14T16:54:37.431Z,31.78
2023-03-14T16:55:37.407Z,31.82
2023-03-14T16:56:37.484Z,31.74
2023-03-14T16:57:37.410Z,31.79
2023-03-14T16:58:37.423Z,31.77
2023-03-14T16:59:37.388Z,31.77
2023-03-14T17:00:37.404Z,31.78
2023-03-14T17:01:37.406Z,31.77
2023-03-14T17:02:37.379Z,31.70
2023-03-14T17:03:37.392Z,31.71
2023-03-14T17:04:37.347Z,31.72
2023-03-14T17:05:37.355Z,31.74
2023-03-14T17:06:37.354Z,31.73
2023-03-14T17:07:37.362Z,31.71
2023-03-14T17:08:37.357Z,31.71
2023-03-14T17:09:37.311Z,31.72
2023-03-14T17:10:38.802Z,31.70
2023-03-14T17:11:37.336Z,31.66
2023-03-14T17:12:37.360Z,31.72
2023-03-14T17:13:37.400Z,31.71
2023-03-14T17:14:37.404Z,31.69
2023-03-14T17:15:37.485Z,31.69
2023-03-14T17:16:37.514Z,31.69
2023-03-14T17:17:37.472Z,31.64
2023-03-14T17:18:37.464Z,31.60
2023-03-14T17:19:37.494Z,31.54
2023-03-14T17:20:37.493Z,31.46
2023-03-14T17:21:37.509Z,31.45
2023-03-14T17:22:37.541Z,31.44
2023-03-14T19:23:41.652Z,27.92
2023-03-14T19:24:41.715Z,27.94
2023-03-14T19:25:41.820Z,27.93
2023-03-14T19:26:41.802Z,27.90
2023-03-14T19:27:41.816Z,27.90
2023-03-14T19:28:41.857Z,27.89
2023-03-14T19:29:41.902Z,27.86
2023-03-14T19:30:41.946Z,27.81
2023-03-14T19:31:42.022Z,27.85
2023-03-14T19:32:42.117Z,27.85
2023-03-14T19:33:42.046Z,27.82
2023-03-14T19:34:42.121Z,27.83
2023-03-14T19:35:42.208Z,27.82
2023-03-14T19:36:42.180Z,27.82
2023-03-14T19:37:42.224Z,27.80
2023-03-14T19:38:42.290Z,27.80
2023-03-14T19:39:42.315Z,27.80
2023-03-14T19:40:42.363Z,27.84
2023-03-14T19:41:42.414Z,27.80
2023-03-14T19:42:42.469Z,27.77
2023-03-14T19:43:42.514Z,27.76
2023-03-14T19:44:42.551Z,27.68
2023-03-14T19:45:42.607Z,27.70
2023-03-14T19:46:42.595Z,27.73
2023-03-14T19:47:42.630Z,27.74
2023-03-14T19:48:42.673Z,27.71
2023-03-14T19:49:42.725Z,27.71
2023-03-14T19:50:42.745Z,27.72
2023-03-14T19:51:42.797Z,27.68
2023-03-14T19:52:42.868Z,27.63
2023-03-14T19:53:42.888Z,27.65
2023-03-14T19:54:42.939Z,27.63
2023-03-14T19:55:42.977Z,27.66
2023-03-14T19:56:43.004Z,27.64
2023-03-14T19:57:43.053Z,27.69
2023-03-14T19:58:43.077Z,27.66
2023-03-14T19:59:43.106Z,27.64
2023-03-14T20:00:43.142Z,27.66
2023-03-14T20:01:43.266Z,27.65
2023-03-14T20:02:43.338Z,27.62
2023-03-14T20:03:43.297Z,27.61
2023-03-14T20:04:43.339Z,27.62
2023-03-14T20:05:43.400Z,27.64
2023-03-14T20:06:43.443Z,27.64
2023-03-14T20:07:43.454Z,27.60
2023-03-14T20:08:43.513Z,27.60
2023-03-14T20:09:43.554Z,27.61
2023-03-14T20:10:43.562Z,27.54
2023-03-14T20:11:43.598Z,27.54
2023-03-14T20:12:43.799Z,27.55
2023-03-14T20:13:43.678Z,27.57
2023-03-14T20:14:43.756Z,27.54
2023-03-14T20:15:43.803Z,27.55
2023-03-14T20:16:43.967Z,27.49
2023-03-14T20:17:43.917Z,27.48
2023-03-14T20:18:43.930Z,27.48
2023-03-14T20:19:43.968Z,27.48
2023-03-14T20:20:44.016Z,27.49
2023-03-14T20:21:44.054Z,27.51
2023-03-14T20:22:44.075Z,27.47
2023-03-14T20:23:44.196Z,27.47
2023-03-14T20:24:44.293Z,27.48
2023-03-14T20:25:44.254Z,27.44
2023-03-14T20:26:44.293Z,27.47
2023-03-14T20:27:44.324Z,27.43
2023-03-14T20:28:44.353Z,27.42
2023-03-14T20:29:44.428Z,27.41
2023-03-14T20:30:44.530Z,27.40
2023-03-14T20:31:44.504Z,27.43
2023-03-14T20:32:44.629Z,27.42
2023-03-14T20:33:44.556Z,27.43
2023-03-14T20:34:44.653Z,27.45
2023-03-14T20:35:44.687Z,27.44
2023-03-14T20:36:44.738Z,27.41
2023-03-14T20:37:44.750Z,27.39
2023-03-14T20:38:44.804Z,27.39
2023-03-14T20:39:44.858Z,27.35
2023-03-14T20:40:44.894Z,27.33
2023-03-14T20:41:44.941Z,27.35
2023-03-14T20:42:45.730Z,27.38
2023-03-14T20:43:45.051Z,27.34
2023-03-14T20:44:45.068Z,27.31
2023-03-14T20:45:45.132Z,27.33
2023-03-14T20:46:45.265Z,27.31
2023-03-14T20:47:45.230Z,27.28
2023-03-14T20:48:45.294Z,27.29
2023-03-14T20:49:45.352Z,27.25
2023-03-14T20:50:45.389Z,27.25
2023-03-14T20:51:45.410Z,27.25
2023-03-14T20:52:45.573Z,27.27
2023-03-14T20:53:45.529Z,27.27
2023-03-14T20:54:45.548Z,27.27
2023-03-14T20:55:45.581Z,27.24
2023-03-14T20:56:45.626Z,27.25
2023-03-14T20:57:45.721Z,27.24
2023-03-14T20:58:45.783Z,27.24
2023-03-14T20:59:46.724Z,27.22
2023-03-14T21:00:45.847Z,27.23
2023-03-14T21:01:45.991Z,27.22
2023-03-14T21:02:45.982Z,27.26
2023-03-14T21:03:45.997Z,27.21
2023-03-14T21:04:46.116Z,27.22
2023-03-14T21:05:46.175Z,27.22
2023-03-14T21:06:46.157Z,27.22
2023-03-14T21:07:46.206Z,27.22
2023-03-14T21:08:46.233Z,27.18
2023-03-14T21:09:46.287Z,27.18
2023-03-14T21:10:46.324Z,27.20
2023-03-14T21:11:46.405Z,27.18
2023-03-14T21:12:46.450Z,27.20
2023-03-14T21:13:46.502Z,27.19
2023-03-14T21:14:46.540Z,27.20
2023-03-14T21:16:46.630Z,27.21
2023-03-14T21:17:46.699Z,27.17
2023-03-14T21:18:46.738Z,27.19
2023-03-14T21:19:46.760Z,27.16
2023-03-14T23:02:51.739Z,26.75
2023-03-14T23:03:51.737Z,26.75
2023-03-14T23:04:51.771Z,26.69
2023-03-14T23:05:51.838Z,26.69
2023-03-14T23:06:51.892Z,26.69
2023-03-14T23:07:51.916Z,26.58
2023-03-14T23:08:51.988Z,26.62
2023-03-14T23:09:51.988Z,26.64
2023-03-14T23:10:52.050Z,26.61
2023-03-14T23:11:52.154Z,26.58
2023-03-14T23:12:52.180Z,26.58
2023-03-14T23:13:52.212Z,26.59
2023-03-14T23:14:52.246Z,26.59
2023-03-14T23:15:52.295Z,26.59
2023-03-14T23:16:52.392Z,26.56
2023-03-14T23:17:52.437Z,26.54
2023-03-14T23:18:52.448Z,26.52
2023-03-14T23:19:52.488Z,26.48
2023-03-14T23:20:52.549Z,26.46
2023-03-14T23:21:52.604Z,26.47
2023-03-14T23:22:52.641Z,26.46
2023-03-14T23:23:52.741Z,26.49
2023-03-14T23:24:52.772Z,26.49
2023-03-14T23:25:53.916Z,26.48
2023-03-14T23:26:52.893Z,26.47
2023-03-14T23:27:52.931Z,26.49
2023-03-14T23:28:52.974Z,26.50
2023-03-14T23:29:53.005Z,26.50
2023-03-14T23:30:53.110Z,26.48
2023-03-14T23:31:53.134Z,26.49
2023-03-14T23:32:53.201Z,26.46
2023-03-14T23:33:53.248Z,26.47
2023-03-14T23:34:53.265Z,26.47
2023-03-14T23:35:53.356Z,26.46
2023-03-14T23:36:53.369Z,26.46
2023-03-14T23:37:53.440Z,26.45
2023-03-14T23:38:53.482Z,26.45
2023-03-14T23:39:53.535Z,26.46
2023-03-14T23:40:53.645Z,26.44
2023-03-14T23:41:53.670Z,26.44
2023-03-14T23:42:53.680Z,26.47
2023-03-14T23:43:53.782Z,26.45
2023-03-14T23:44:54.553Z,26.44
2023-03-14T23:45:53.879Z,26.42
2023-03-14T23:46:53.915Z,26.43
2023-03-14T23:47:53.950Z,26.44
2023-03-14T23:48:54.004Z,26.42
2023-03-14T23:49:54.077Z,26.44
2023-03-14T23:50:54.111Z,26.41
2023-03-14T23:51:54.165Z,26.39
2023-03-14T23:52:54.189Z,26.39
2023-03-14T23:53:54.297Z,26.39
2023-03-14T23:54:54.318Z,26.39
2023-03-14T23:55:54.367Z,26.38